Time;durP1;ratioP1;P1;durP2;ratioP2;P2;SDS_P1;SDS_P2;PMS_P1;PMS_P2;Temp;Humidity;BMP_temperature;BMP_pressure;BME280_temperature;BME280_humidity;BME280_pressure;Samples;Min_cycle;Max_cycle;Signal;HPM_P1;HPM_P2
2022/06/15 00:01:17;;;;;;;;;;;15.60;99.90;;;;;;5032809;28;20105;-64
2022/06/15 00:03:45;;;;;;;;;;;15.60;99.90;;;;;;5031970;28;19937;-64
2022/06/15 00:06:13;;;;;;;;;;;15.70;99.90;;;;;;5033000;28;19936;-64
2022/06/15 00:08:41;;;;;;;;;;;15.70;99.90;;;;;;5043289;28;20352;-64
2022/06/15 00:11:08;;;;;;;;;;;15.60;99.90;;;;;;5041325;28;19925;-64
2022/06/15 00:13:35;;;;;;;;;;;15.70;99.90;;;;;;5042865;28;19929;-64
2022/06/15 00:16:03;;;;;;;;;;;15.70;99.90;;;;;;5050268;28;19971;-64
2022/06/15 00:18:30;;;;;;;;;;;15.70;99.90;;;;;;5039168;28;19925;-64
2022/06/15 00:20:59;;;;;;;;;;;15.60;99.90;;;;;;5038814;28;19929;-64
2022/06/15 00:23:27;;;;;;;;;;;15.50;99.90;;;;;;5032435;28;19929;-65
2022/06/15 00:25:54;;;;;;;;;;;15.50;99.90;;;;;;5043041;28;19931;-64
2022/06/15 00:28:21;;;;;;;;;;;15.30;99.90;;;;;;5033781;28;19932;-65
2022/06/15 00:30:50;;;;;;;;;;;15.30;99.90;;;;;;5033337;28;19925;-63
2022/06/15 00:33:19;;;;;;;;;;;15.30;99.90;;;;;;5046372;28;20398;-64
2022/06/15 00:35:56;;;;;;;;;;;15.30;99.90;;;;;;5034510;28;19930;-63
2022/06/15 00:38:25;;;;;;;;;;;15.20;99.90;;;;;;5048397;28;19933;-64
2022/06/15 00:40:51;;;;;;;;;;;15.20;99.90;;;;;;5037004;28;19931;-64
2022/06/15 00:43:28;;;;;;;;;;;15.20;99.90;;;;;;5033258;28;19929;-64
2022/06/15 00:45:55;;;;;;;;;;;15.10;99.90;;;;;;5029370;28;20341;-64
2022/06/15 00:48:22;;;;;;;;;;;;;;;;;;5036460;28;20305;-64
2022/06/15 00:50:50;;;;;;;;;;;14.70;99.90;;;;;;5035714;28;20462;-64
2022/06/15 00:53:17;;;;;;;;;;;14.50;99.90;;;;;;5042894;28;19978;-64
2022/06/15 00:55:46;;;;;;;;;;;14.30;99.90;;;;;;5030930;28;19925;-64
2022/06/15 00:58:15;;;;;;;;;;;14.30;99.90;;;;;;5035620;28;19945;-64
2022/06/15 01:00:41;;;;;;;;;;;14.20;99.90;;;;;;5034712;28;19925;-63
2022/06/15 01:03:10;;;;;;;;;;;14.20;99.90;;;;;;5043625;28;19925;-64
2022/06/15 01:05:40;;;;;;;;;;;14.20;99.90;;;;;;5031150;28;19932;-64
2022/06/15 01:08:21;;;;;;;;;;;14.00;99.90;;;;;;5030610;28;19929;-64
2022/06/15 01:10:59;;;;;;;;;;;13.90;99.90;;;;;;5023710;28;19961;-64
2022/06/15 01:13:32;;;;;;;;;;;13.90;99.90;;;;;;5035697;28;19925;-64
2022/06/15 01:16:01;;;;;;;;;;;13.90;99.90;;;;;;5037631;28;19929;-65
2022/06/15 01:18:32;;;;;;;;;;;13.80;99.90;;;;;;5031199;28;19933;-65
2022/06/15 01:21:04;;;;;;;;;;;13.70;99.90;;;;;;5027433;28;19932;-64
2022/06/15 01:23:41;;;;;;;;;;;13.60;99.90;;;;;;5049584;28;19925;-63
2022/06/15 01:26:23;;;;;;;;;;;13.40;99.90;;;;;;5038018;28;19929;-64
2022/06/15 01:28:52;;;;;;;;;;;13.40;99.90;;;;;;5028187;28;19929;-64
2022/06/15 01:31:27;;;;;;;;;;;13.30;99.90;;;;;;5031170;28;19933;-63
2022/06/15 01:34:00;;;;;;;;;;;13.40;99.90;;;;;;5037740;28;19925;-63
2022/06/15 01:36:27;;;;;;;;;;;;;;;;;;5038659;28;19936;-63
2022/06/15 01:38:59;;;;;;;;;;;13.30;99.90;;;;;;5045837;28;19925;-64
2022/06/15 01:41:31;;;;;;;;;;;13.20;99.90;;;;;;5030749;28;19933;-63
2022/06/15 01:44:00;;;;;;;;;;;13.20;99.90;;;;;;5030605;28;19936;-63
2022/06/15 01:46:30;;;;;;;;;;;13.20;99.90;;;;;;5033217;28;19979;-64
2022/06/15 01:48:58;;;;;;;;;;;13.20;99.90;;;;;;5032771;28;20004;-63
2022/06/15 01:51:26;;;;;;;;;;;13.10;99.90;;;;;;5041161;28;19925;-63
2022/06/15 01:53:57;;;;;;;;;;;13.00;99.90;;;;;;5031556;28;19935;-64
2022/06/15 01:56:26;;;;;;;;;;;13.00;99.90;;;;;;5034354;28;19978;-63
2022/06/15 01:58:57;;;;;;;;;;;13.00;99.90;;;;;;5035711;28;19924;-63
2022/06/15 02:01:29;;;;;;;;;;;12.90;99.90;;;;;;5031039;28;19925;-64
2022/06/15 02:04:00;;;;;;;;;;;13.00;99.90;;;;;;5031477;28;19929;-63
2022/06/15 02:06:33;;;;;;;;;;;12.90;99.90;;;;;;5034425;28;20416;-64
2022/06/15 02:09:05;;;;;;;;;;;13.00;99.90;;;;;;5034087;28;19940;-64
2022/06/15 02:11:34;;;;;;;;;;;12.90;99.90;;;;;;5055826;28;19925;-64
2022/06/15 02:14:05;;;;;;;;;;;12.90;99.90;;;;;;5050802;28;20028;-63
2022/06/15 02:16:33;;;;;;;;;;;13.00;99.90;;;;;;5038890;28;20396;-63
2022/06/15 02:19:04;;;;;;;;;;;13.00;99.90;;;;;;5030816;28;19925;-63
2022/06/15 02:21:31;;;;;;;;;;;13.00;99.90;;;;;;5043261;28;19932;-63
2022/06/15 02:24:00;;;;;;;;;;;12.90;99.90;;;;;;5046318;28;19929;-63
2022/06/15 02:26:31;;;;;;;;;;;12.90;99.90;;;;;;5037029;28;20012;-64
2022/06/15 02:29:00;;;;;;;;;;;13.00;99.90;;;;;;5037861;28;19968;-63
2022/06/15 02:31:34;;;;;;;;;;;12.90;99.90;;;;;;5037327;28;19932;-63
2022/06/15 02:34:03;;;;;;;;;;;12.70;99.90;;;;;;5038413;28;19925;-63
2022/06/15 02:36:32;;;;;;;;;;;12.70;99.90;;;;;;5045425;28;19925;-64
2022/06/15 02:39:01;;;;;;;;;;;12.60;99.90;;;;;;5033493;28;19932;-64
2022/06/15 02:41:31;;;;;;;;;;;12.60;99.90;;;;;;5037304;28;19925;-64
2022/06/15 02:44:02;;;;;;;;;;;12.50;99.90;;;;;;5040365;28;19948;-64
2022/06/15 02:46:33;;;;;;;;;;;12.50;99.90;;;;;;5034598;28;19925;-64
2022/06/15 02:49:03;;;;;;;;;;;12.50;99.90;;;;;;5037700;28;20016;-63
2022/06/15 02:51:32;;;;;;;;;;;12.50;99.90;;;;;;5037787;28;19928;-64
2022/06/15 02:54:07;;;;;;;;;;;12.50;99.90;;;;;;5041801;28;20448;-63
2022/06/15 02:56:34;;;;;;;;;;;12.40;99.90;;;;;;5038492;28;19926;-64
2022/06/15 02:59:01;;;;;;;;;;;12.30;99.90;;;;;;5032759;28;20404;-63
2022/06/15 03:01:35;;;;;;;;;;;12.30;99.90;;;;;;5029091;28;19926;-63
2022/06/15 03:04:03;;;;;;;;;;;12.20;99.90;;;;;;5036366;28;19925;-64
2022/06/15 03:06:30;;;;;;;;;;;12.20;99.90;;;;;;5054067;28;19933;-63
2022/06/15 03:09:00;;;;;;;;;;;12.10;99.90;;;;;;5039831;28;19925;-63
2022/06/15 03:11:56;;;;;;;;;;;12.00;99.90;;;;;;5026496;28;19984;-64
2022/06/15 03:14:33;;;;;;;;;;;12.10;99.90;;;;;;5035160;28;19932;-64
2022/06/15 03:17:00;;;;;;;;;;;12.00;99.90;;;;;;5036126;28;19925;-64
2022/06/15 03:19:39;;;;;;;;;;;12.00;99.90;;;;;;5045135;28;20300;-63
2022/06/15 03:22:05;;;;;;;;;;;12.00;99.90;;;;;;5048650;28;20392;-63
2022/06/15 03:24:36;;;;;;;;;;;11.90;99.90;;;;;;5039981;28;20020;-63
2022/06/15 03:27:05;;;;;;;;;;;11.80;99.90;;;;;;5035738;28;19925;-63
2022/06/15 03:29:32;;;;;;;;;;;11.70;99.90;;;;;;5032529;28;19932;-63
2022/06/15 03:32:05;;;;;;;;;;;11.70;99.90;;;;;;5039034;28;19969;-64
2022/06/15 03:34:44;;;;;;;;;;;11.70;99.90;;;;;;5037139;28;19968;-64
2022/06/15 03:37:12;;;;;;;;;;;11.70;99.90;;;;;;5037656;28;19925;-63
2022/06/15 03:39:40;;;;;;;;;;;11.70;99.90;;;;;;5044035;28;19960;-63
2022/06/15 03:42:10;;;;;;;;;;;11.70;99.90;;;;;;5039814;28;19924;-63
2022/06/15 03:44:38;;;;;;;;;;;11.80;99.90;;;;;;5035081;28;19929;-63
2022/06/15 03:47:07;;;;;;;;;;;11.90;99.90;;;;;;5043927;28;19976;-63
2022/06/15 03:49:36;;;;;;;;;;;11.90;99.90;;;;;;5038150;28;20455;-63
2022/06/15 03:52:06;;;;;;;;;;;11.90;99.90;;;;;;5032840;28;20414;-64
2022/06/15 03:54:34;;;;;;;;;;;11.90;99.90;;;;;;5042045;28;19924;-63
2022/06/15 03:57:01;;;;;;;;;;;11.90;99.90;;;;;;5041529;28;19929;-64
2022/06/15 03:59:33;;;;;;;;;;;11.80;99.90;;;;;;5036606;28;20316;-63
2022/06/15 04:02:09;;;;;;;;;;;11.90;99.90;;;;;;5045347;28;19928;-63
2022/06/15 04:04:38;;;;;;;;;;;11.90;99.90;;;;;;5032252;28;19936;-63
2022/06/15 04:08:34;;;;;;;;;;;12.00;99.90;;;;;;5032982;28;19925;-63
2022/06/15 04:09:54;;;;;;;;;;;12.00;99.90;;;;;;5029926;28;19925;-64
2022/06/15 04:12:21;;;;;;;;;;;11.90;99.90;;;;;;5038267;28;20000;-64
2022/06/15 04:14:49;;;;;;;;;;;12.00;99.90;;;;;;5038530;28;19987;-63
2022/06/15 04:17:28;;;;;;;;;;;12.00;99.90;;;;;;5044650;28;19940;-64
2022/06/15 04:22:59;;;;;;;;;;;12.10;99.90;;;;;;5032718;28;20008;-63
2022/06/15 04:25:26;;;;;;;;;;;12.20;99.90;;;;;;5028485;28;20450;-63
2022/06/15 04:27:53;;;;;;;;;;;12.20;99.90;;;;;;5029240;28;19925;-63
2022/06/15 04:30:21;;;;;;;;;;;12.30;99.90;;;;;;5029216;28;19926;-64
2022/06/15 04:32:54;;;;;;;;;;;12.50;99.90;;;;;;5026671;28;19926;-63
2022/06/15 04:35:23;;;;;;;;;;;12.50;99.90;;;;;;5033723;28;19967;-64
2022/06/15 04:37:50;;;;;;;;;;;12.50;99.90;;;;;;5032407;28;19925;-63
2022/06/15 04:40:27;;;;;;;;;;;12.60;99.90;;;;;;5042471;28;19925;-64
2022/06/15 04:42:56;;;;;;;;;;;12.60;99.90;;;;;;5031479;28;20373;-64
2022/06/15 04:45:23;;;;;;;;;;;12.70;99.90;;;;;;5032901;28;19925;-63
2022/06/15 04:48:00;;;;;;;;;;;12.80;99.90;;;;;;5031834;28;19979;-64
2022/06/15 04:50:27;;;;;;;;;;;12.80;99.90;;;;;;5032233;28;20288;-63
2022/06/15 04:52:56;;;;;;;;;;;12.90;99.90;;;;;;5033755;28;19936;-63
2022/06/15 04:55:24;;;;;;;;;;;12.90;99.90;;;;;;5041171;28;20462;-63
2022/06/15 04:57:57;;;;;;;;;;;13.00;99.90;;;;;;5029095;28;19924;-63
2022/06/15 05:00:27;;;;;;;;;;;13.10;99.90;;;;;;5031088;28;20365;-63
2022/06/15 05:02:54;;;;;;;;;;;13.20;99.90;;;;;;5023833;28;19925;-63
2022/06/15 05:05:23;;;;;;;;;;;13.30;99.90;;;;;;5030193;28;19932;-63
2022/06/15 05:07:52;;;;;;;;;;;13.40;99.90;;;;;;5031039;28;19960;-63
2022/06/15 05:10:21;;;;;;;;;;;13.50;99.90;;;;;;5031561;28;19933;-63
2022/06/15 05:12:50;;;;;;;;;;;13.50;99.90;;;;;;5026203;28;19936;-63
2022/06/15 05:15:19;;;;;;;;;;;13.60;99.90;;;;;;5032979;28;19967;-63
2022/06/15 05:17:50;;;;;;;;;;;13.60;99.90;;;;;;5036111;28;19924;-64
2022/06/15 05:20:18;;;;;;;;;;;13.70;99.90;;;;;;5034718;28;19926;-63
2022/06/15 05:22:50;;;;;;;;;;;13.80;99.90;;;;;;5046390;28;19960;-64
2022/06/15 05:25:17;;;;;;;;;;;13.90;99.90;;;;;;5042411;28;20320;-64
2022/06/15 05:27:44;;;;;;;;;;;14.00;99.90;;;;;;5041018;28;19931;-65
2022/06/15 05:30:11;;;;;;;;;;;14.10;99.90;;;;;;5037381;28;20011;-64
2022/06/15 05:32:40;;;;;;;;;;;14.20;99.90;;;;;;5044166;28;20428;-63
2022/06/15 05:35:08;;;;;;;;;;;14.20;99.90;;;;;;5035138;28;19925;-64
2022/06/15 05:37:35;;;;;;;;;;;14.20;99.90;;;;;;5032505;28;19926;-65
2022/06/15 05:40:02;;;;;;;;;;;14.30;99.90;;;;;;5035724;28;19975;-64
2022/06/15 05:42:29;;;;;;;;;;;14.50;99.90;;;;;;5033532;28;19932;-64
2022/06/15 05:45:02;;;;;;;;;;;14.60;99.90;;;;;;5030470;28;19952;-64
2022/06/15 05:47:31;;;;;;;;;;;14.70;99.90;;;;;;5042606;28;19929;-78
2022/06/15 05:50:18;;;;;;;;;;;14.90;99.90;;;;;;5033829;28;19932;-64
2022/06/15 05:52:52;;;;;;;;;;;15.10;99.90;;;;;;5034758;28;19925;-64
2022/06/15 05:55:19;;;;;;;;;;;15.20;99.90;;;;;;5031043;28;19925;-63
2022/06/15 05:57:46;;;;;;;;;;;15.40;99.90;;;;;;5029716;28;19936;-64
2022/06/15 06:00:14;;;;;;;;;;;15.50;99.90;;;;;;5031148;28;19925;-64
2022/06/15 06:02:41;;;;;;;;;;;15.60;99.90;;;;;;5032171;28;19929;-63
2022/06/15 06:05:09;;;;;;;;;;;15.60;99.90;;;;;;5044525;28;19975;-64
2022/06/15 06:07:37;;;;;;;;;;;15.70;99.90;;;;;;5030624;28;19925;-64
2022/06/15 06:10:04;;;;;;;;;;;15.80;99.90;;;;;;5029875;28;19932;-63
2022/06/15 06:12:31;;;;;;;;;;;15.90;99.90;;;;;;5034180;28;19929;-65
2022/06/15 06:14:57;;;;;;;;;;;15.90;99.90;;;;;;5030479;28;19925;-63
2022/06/15 06:17:24;;;;;;;;;;;16.00;99.90;;;;;;5032681;28;19932;-63
2022/06/15 06:19:51;;;;;;;;;;;16.10;99.90;;;;;;5033666;28;19929;-63
2022/06/15 06:22:18;;;;;;;;;;;16.20;99.90;;;;;;5058621;28;19925;-63
2022/06/15 06:24:46;;;;;;;;;;;16.30;99.90;;;;;;5030138;28;19975;-63
2022/06/15 06:27:14;;;;;;;;;;;16.40;99.90;;;;;;5030520;28;19929;-63
2022/06/15 06:29:40;;;;;;;;;;;16.40;99.90;;;;;;5029425;28;19986;-63
2022/06/15 06:32:08;;;;;;;;;;;16.50;99.90;;;;;;5032078;28;19932;-63
2022/06/15 06:34:35;;;;;;;;;;;16.60;99.90;;;;;;5026145;28;19925;-62
2022/06/15 06:37:02;;;;;;;;;;;16.60;99.90;;;;;;5042183;28;20355;-64
2022/06/15 06:39:30;;;;;;;;;;;16.70;99.90;;;;;;5044008;28;20471;-63
2022/06/15 06:41:59;;;;;;;;;;;16.80;99.90;;;;;;5033091;28;19929;-64
2022/06/15 06:44:26;;;;;;;;;;;16.90;99.90;;;;;;5033183;28;19936;-63
2022/06/15 06:46:53;;;;;;;;;;;17.00;99.90;;;;;;5035285;28;19925;-63
2022/06/15 06:49:20;;;;;;;;;;;17.10;99.90;;;;;;5043567;28;19925;-63
2022/06/15 06:51:47;;;;;;;;;;;17.20;99.90;;;;;;5043260;28;19925;-64
2022/06/15 06:54:15;;;;;;;;;;;17.20;99.90;;;;;;5036174;28;20460;-63
2022/06/15 06:56:42;;;;;;;;;;;17.30;99.90;;;;;;5033558;28;20294;-63
2022/06/15 06:59:12;;;;;;;;;;;17.40;99.90;;;;;;5031531;28;19925;-63
2022/06/15 07:01:39;;;;;;;;;;;17.50;99.90;;;;;;5043540;28;19925;-63
2022/06/15 07:04:06;;;;;;;;;;;17.70;99.90;;;;;;5033223;28;20336;-63
2022/06/15 07:06:33;;;;;;;;;;;17.80;99.90;;;;;;5030725;28;19983;-63
2022/06/15 07:09:01;;;;;;;;;;;17.90;99.90;;;;;;5043222;28;19925;-62
2022/06/15 07:11:28;;;;;;;;;;;17.90;99.90;;;;;;5033094;28;20055;-63
2022/06/15 07:13:56;;;;;;;;;;;18.00;99.90;;;;;;5033238;28;19925;-63
2022/06/15 07:16:24;;;;;;;;;;;18.20;99.90;;;;;;5035262;28;19926;-63
2022/06/15 07:18:51;;;;;;;;;;;18.30;99.90;;;;;;5038507;28;19931;-63
2022/06/15 07:21:19;;;;;;;;;;;18.30;99.90;;;;;;5036830;28;20352;-63
2022/06/15 07:23:47;;;;;;;;;;;18.40;99.90;;;;;;5039671;28;19941;-63
2022/06/15 07:26:15;;;;;;;;;;;18.50;99.90;;;;;;5041967;28;19932;-63
2022/06/15 07:28:42;;;;;;;;;;;18.50;99.90;;;;;;5037139;28;20285;-63
2022/06/15 07:31:09;;;;;;;;;;;18.60;99.90;;;;;;5046008;28;19933;-62
2022/06/15 07:33:38;;;;;;;;;;;18.60;99.90;;;;;;5033301;28;19926;-63
2022/06/15 07:36:05;;;;;;;;;;;18.70;99.90;;;;;;5033469;28;19929;-63
2022/06/15 07:38:32;;;;;;;;;;;18.80;99.90;;;;;;5032436;28;19933;-64
2022/06/15 07:40:58;;;;;;;;;;;18.80;99.90;;;;;;5033089;28;20411;-63
2022/06/15 07:43:26;;;;;;;;;;;18.80;99.90;;;;;;5033061;28;19924;-63
2022/06/15 07:45:52;;;;;;;;;;;18.90;99.90;;;;;;5033183;28;19971;-63
2022/06/15 07:51:05;;;;;;;;;;;19.10;99.90;;;;;;5032536;28;19921;-64
2022/06/15 07:53:32;;;;;;;;;;;19.30;99.90;;;;;;5032167;28;19933;-64
2022/06/15 07:55:59;;;;;;;;;;;19.20;99.90;;;;;;5035832;28;19929;-63
2022/06/15 07:58:25;;;;;;;;;;;19.30;99.90;;;;;;5049127;28;19924;-62
2022/06/15 08:00:53;;;;;;;;;;;19.40;99.90;;;;;;5039275;28;19925;-62
2022/06/15 08:03:20;;;;;;;;;;;19.50;99.90;;;;;;5038841;28;19964;-62
2022/06/15 08:05:48;;;;;;;;;;;19.60;99.90;;;;;;5032636;28;19929;-63
2022/06/15 08:08:17;;;;;;;;;;;19.60;99.90;;;;;;5033035;28;19925;-63
2022/06/15 08:10:45;;;;;;;;;;;19.80;99.90;;;;;;5036358;28;19987;-63
2022/06/15 08:13:12;;;;;;;;;;;19.80;99.90;;;;;;5032913;28;19935;-63
2022/06/15 08:15:41;;;;;;;;;;;19.90;99.90;;;;;;5038497;28;19925;-64
2022/06/15 08:18:10;;;;;;;;;;;20.10;99.90;;;;;;5040641;28;19991;-64
2022/06/15 08:20:37;;;;;;;;;;;20.20;99.90;;;;;;5025591;28;20028;-63
2022/06/15 08:23:09;;;;;;;;;;;20.30;99.90;;;;;;5040925;28;19925;-63
2022/06/15 08:25:39;;;;;;;;;;;20.30;99.90;;;;;;5035895;28;19924;-62
2022/06/15 08:28:06;;;;;;;;;;;20.50;99.90;;;;;;5040042;28;19936;-63
2022/06/15 08:30:34;;;;;;;;;;;20.70;99.90;;;;;;5035624;28;19925;-63
2022/06/15 08:33:01;;;;;;;;;;;20.70;99.90;;;;;;5044921;28;19932;-64
2022/06/15 08:35:28;;;;;;;;;;;20.70;99.90;;;;;;5034434;28;19940;-63
2022/06/15 08:37:55;;;;;;;;;;;20.80;99.90;;;;;;5040294;28;19925;-63
2022/06/15 08:40:22;;;;;;;;;;;20.90;99.90;;;;;;5039325;28;19929;-63
2022/06/15 08:42:56;;;;;;;;;;;21.00;99.90;;;;;;5044274;28;19932;-64
2022/06/15 08:45:26;;;;;;;;;;;21.10;99.90;;;;;;5041810;28;19937;-64
2022/06/15 08:48:00;;;;;;;;;;;21.20;99.90;;;;;;5038161;28;19929;-63
2022/06/15 08:50:33;;;;;;;;;;;21.20;99.90;;;;;;5031942;28;19932;-63
2022/06/15 08:53:04;;;;;;;;;;;21.30;99.90;;;;;;5031459;28;20024;-64
2022/06/15 08:55:37;;;;;;;;;;;21.40;99.90;;;;;;5062965;28;19924;-63
2022/06/15 08:58:09;;;;;;;;;;;21.30;99.90;;;;;;5034791;28;19968;-63
2022/06/15 09:00:38;;;;;;;;;;;21.40;99.90;;;;;;5046913;28;19975;-63
2022/06/15 09:03:11;;;;;;;;;;;21.50;99.90;;;;;;5031508;28;19925;-63
2022/06/15 09:05:42;;;;;;;;;;;21.70;99.90;;;;;;5027459;28;19929;-64
2022/06/15 09:08:19;;;;;;;;;;;21.80;99.90;;;;;;5036689;28;19928;-63
2022/06/15 09:10:50;;;;;;;;;;;21.90;99.90;;;;;;5033603;28;19925;-64
2022/06/15 09:13:25;;;;;;;;;;;22.00;99.90;;;;;;5031582;28;19925;-64
2022/06/15 09:15:57;;;;;;;;;;;22.20;99.90;;;;;;5030898;28;19925;-63
2022/06/15 09:18:28;;;;;;;;;;;22.10;99.90;;;;;;5032856;28;19929;-63
2022/06/15 09:20:57;;;;;;;;;;;22.20;99.90;;;;;;5033508;28;19972;-64
2022/06/15 09:23:27;;;;;;;;;;;22.20;99.90;;;;;;5031496;28;19933;-63
2022/06/15 09:25:57;;;;;;;;;;;22.40;99.90;;;;;;5039692;28;19925;-61
2022/06/15 09:28:27;;;;;;;;;;;22.50;99.90;;;;;;5040972;28;20339;-63
2022/06/15 09:30:54;;;;;;;;;;;22.60;99.90;;;;;;5039930;28;19925;-62
2022/06/15 09:33:22;;;;;;;;;;;22.70;99.90;;;;;;5039164;28;20012;-63
2022/06/15 09:35:51;;;;;;;;;;;22.80;99.90;;;;;;5033241;28;19947;-64
2022/06/15 09:38:18;;;;;;;;;;;23.00;99.90;;;;;;5040325;28;19925;-63
2022/06/15 09:40:49;;;;;;;;;;;23.00;99.90;;;;;;5048169;28;19925;-63
2022/06/15 09:43:20;;;;;;;;;;;23.10;99.90;;;;;;5038247;28;20020;-63
2022/06/15 09:45:54;;;;;;;;;;;23.10;99.90;;;;;;5043349;28;19983;-62
2022/06/15 09:48:23;;;;;;;;;;;23.20;99.90;;;;;;5033766;28;20329;-63
2022/06/15 09:50:54;;;;;;;;;;;23.30;99.90;;;;;;5036005;28;19925;-63
2022/06/15 09:53:29;;;;;;;;;;;23.40;99.90;;;;;;5034364;28;19929;-62
2022/06/15 09:55:58;;;;;;;;;;;23.50;99.90;;;;;;5040561;28;20350;-62
2022/06/15 09:58:26;;;;;;;;;;;23.60;99.90;;;;;;5056860;28;20011;-62
2022/06/15 10:00:54;;;;;;;;;;;23.50;99.90;;;;;;5031972;28;19929;-63
2022/06/15 10:03:24;;;;;;;;;;;23.60;99.90;;;;;;5045768;28;19924;-62
2022/06/15 10:05:52;;;;;;;;;;;23.70;99.90;;;;;;5038721;28;19929;-63
2022/06/15 10:08:19;;;;;;;;;;;23.70;99.90;;;;;;5047408;28;19932;-63
2022/06/15 10:10:49;;;;;;;;;;;23.80;99.90;;;;;;5033986;28;20408;-63
2022/06/15 10:13:27;;;;;;;;;;;23.90;99.90;;;;;;5030185;28;19929;-63
2022/06/15 10:15:56;;;;;;;;;;;24.00;99.90;;;;;;5039588;28;20015;-62
2022/06/15 10:18:28;;;;;;;;;;;24.20;99.90;;;;;;5032048;28;19929;-63
2022/06/15 10:20:58;;;;;;;;;;;24.30;99.90;;;;;;5051775;28;19925;-63
2022/06/15 10:23:30;;;;;;;;;;;24.40;99.90;;;;;;5051337;28;19925;-63
2022/06/15 10:25:57;;;;;;;;;;;24.30;99.90;;;;;;5044930;28;19929;-63
2022/06/15 10:28:25;;;;;;;;;;;24.40;99.90;;;;;;5069251;22;19921;-64
2022/06/15 10:30:54;;;;;;;;;;;24.40;99.90;;;;;;5044868;28;19960;-64
2022/06/15 10:33:22;;;;;;;;;;;24.60;99.90;;;;;;5037948;28;19925;-64
2022/06/15 10:35:49;;;;;;;;;;;24.60;99.90;;;;;;5039897;28;19983;-65
2022/06/15 10:38:18;;;;;;;;;;;24.70;99.90;;;;;;5049492;28;19968;-64
2022/06/15 10:40:51;;;;;;;;;;;24.70;99.90;;;;;;5040273;28;20311;-64
2022/06/15 10:43:21;;;;;;;;;;;24.70;99.90;;;;;;5035170;28;19933;-64
2022/06/15 10:45:56;;;;;;;;;;;24.90;99.90;;;;;;5033880;28;19983;-63
2022/06/15 10:48:27;;;;;;;;;;;25.00;99.90;;;;;;5030163;28;19932;-64
2022/06/15 10:50:58;;;;;;;;;;;25.10;99.90;;;;;;5034657;28;19969;-64
2022/06/15 10:53:27;;;;;;;;;;;25.20;99.90;;;;;;5034084;28;19931;-64
2022/06/15 11:04:23;;;;;;;;;;;25.50;99.90;;;;;;5033307;28;19932;-64
2022/06/15 11:06:50;;;;;;;;;;;25.60;99.90;;;;;;5039185;28;19929;-64
2022/06/15 11:09:22;;;;;;;;;;;25.80;99.90;;;;;;5037362;28;20332;-64
2022/06/15 11:11:50;;;;;;;;;;;26.10;99.90;;;;;;5033499;28;19940;-64
2022/06/15 11:14:19;;;;;;;;;;;26.20;99.90;;;;;;5033457;28;20362;-64
2022/06/15 11:19:37;;;;;;;;;;;26.60;99.90;;;;;;5021757;28;19920;-64
2022/06/15 11:22:08;;;;;;;;;;;26.70;99.90;;;;;;5041364;28;19960;-64
2022/06/15 11:24:36;;;;;;;;;;;26.80;99.90;;;;;;5040239;28;19924;-64
2022/06/15 11:27:07;;;;;;;;;;;26.90;99.90;;;;;;5035687;28;20395;-64
2022/06/15 11:29:39;;;;;;;;;;;27.00;99.90;;;;;;5035748;28;19940;-64
2022/06/15 11:32:13;;;;;;;;;;;27.10;99.90;;;;;;5039653;28;19925;-64
2022/06/15 11:34:44;;;;;;;;;;;27.30;99.90;;;;;;5028267;28;19933;-65
2022/06/15 11:37:13;;;;;;;;;;;27.40;99.90;;;;;;5026209;28;20384;-64
2022/06/15 11:39:42;;;;;;;;;;;28.00;99.90;;;;;;5034824;28;19929;-64
2022/06/15 11:42:11;;;;;;;;;;;28.90;99.90;;;;;;5033201;28;20454;-65
2022/06/15 11:44:40;;;;;;;;;;;29.80;99.90;;;;;;5037839;28;19932;-65
2022/06/15 11:47:13;;;;;;;;;;;31.00;99.90;;;;;;5033494;28;19971;-65
2022/06/15 11:49:47;;;;;;;;;;;31.50;99.90;;;;;;5032405;28;19929;-64
2022/06/15 11:52:20;;;;;;;;;;;31.60;99.90;;;;;;5034297;28;19929;-64
2022/06/15 11:54:56;;;;;;;;;;;32.40;99.90;;;;;;5031517;28;19933;-64
2022/06/15 11:57:28;;;;;;;;;;;32.80;99.90;;;;;;5035153;28;19933;-65
2022/06/15 11:59:55;;;;;;;;;;;;;;;;;;5032390;28;19925;-65
2022/06/15 12:02:27;;;;;;;;;;;34.90;99.90;;;;;;5043641;28;19925;-65
2022/06/15 12:05:03;;;;;;;;;;;35.80;99.90;;;;;;5036479;28;19933;-65
2022/06/15 12:07:34;;;;;;;;;;;36.00;99.90;;;;;;5037358;28;19924;-64
2022/06/15 12:10:05;;;;;;;;;;;36.00;99.90;;;;;;5040713;28;19929;-65
2022/06/15 12:12:41;;;;;;;;;;;36.10;99.90;;;;;;5051118;28;20451;-65
2022/06/15 12:15:29;;;;;;;;;;;36.30;99.90;;;;;;5032597;28;19925;-65
2022/06/15 12:17:59;;;;;;;;;;;36.60;99.90;;;;;;5031253;28;19971;-65
2022/06/15 12:20:33;;;;;;;;;;;36.30;99.90;;;;;;5040105;28;19978;-64
2022/06/15 12:23:03;;;;;;;;;;;36.60;99.90;;;;;;5032140;28;19979;-65
2022/06/15 12:25:35;;;;;;;;;;;37.00;99.90;;;;;;5048328;28;19929;-65
2022/06/15 12:28:07;;;;;;;;;;;36.90;99.90;;;;;;5033855;28;19925;-65
2022/06/15 12:30:39;;;;;;;;;;;37.50;99.90;;;;;;5032668;28;19925;-65
2022/06/15 12:33:15;;;;;;;;;;;36.90;99.90;;;;;;5043782;28;19931;-65
2022/06/15 12:35:47;;;;;;;;;;;36.40;99.90;;;;;;5025726;28;19928;-65
2022/06/15 12:38:25;;;;;;;;;;;35.90;99.90;;;;;;5032937;28;20290;-65
2022/06/15 12:40:53;;;;;;;;;;;36.00;99.90;;;;;;5032373;28;19936;-65
2022/06/15 12:43:27;;;;;;;;;;;36.30;99.90;;;;;;5032502;28;19928;-65
2022/06/15 12:45:58;;;;;;;;;;;36.80;99.90;;;;;;5034558;28;19964;-65
2022/06/15 12:48:29;;;;;;;;;;;37.40;99.90;;;;;;5031331;28;19970;-66
2022/06/15 12:51:02;;;;;;;;;;;38.10;99.90;;;;;;5030348;28;19925;-65
2022/06/15 12:53:35;;;;;;;;;;;38.60;99.90;;;;;;5048462;28;19925;-65
2022/06/15 12:56:11;;;;;;;;;;;38.50;99.60;;;;;;5033342;28;19936;-65
2022/06/15 12:58:45;;;;;;;;;;;38.40;99.50;;;;;;5024715;28;19925;-65
2022/06/15 13:01:15;;;;;;;;;;;37.80;99.40;;;;;;5032233;28;19964;-65
2022/06/15 13:03:50;;;;;;;;;;;38.10;99.40;;;;;;5029614;28;19982;-65
2022/06/15 13:06:22;;;;;;;;;;;38.30;98.80;;;;;;5040178;28;19960;-65
2022/06/15 13:08:59;;;;;;;;;;;38.80;98.50;;;;;;5030520;28;19987;-65
2022/06/15 13:11:25;;;;;;;;;;;39.40;97.90;;;;;;5031578;28;19975;-65
2022/06/15 13:13:53;;;;;;;;;;;39.70;98.30;;;;;;5036582;28;19955;-64
2022/06/15 13:16:30;;;;;;;;;;;39.40;97.10;;;;;;5035495;28;19964;-65
2022/06/15 13:18:57;;;;;;;;;;;38.70;97.20;;;;;;5031069;28;19979;-64
2022/06/15 13:21:27;;;;;;;;;;;39.00;97.50;;;;;;5031040;28;19956;-65
2022/06/15 13:24:01;;;;;;;;;;;39.40;96.90;;;;;;5030908;28;19925;-66
2022/06/15 13:26:50;;;;;;;;;;;39.60;96.70;;;;;;5054607;28;19944;-65
2022/06/15 13:29:22;;;;;;;;;;;39.80;96.90;;;;;;5037794;28;19925;-65
2022/06/15 13:31:52;;;;;;;;;;;40.20;96.20;;;;;;5030080;28;21660;-65
2022/06/15 13:34:43;;;;;;;;;;;40.30;95.90;;;;;;5039049;28;19925;-65
2022/06/15 13:37:13;;;;;;;;;;;40.10;95.70;;;;;;5031297;28;19925;-65
2022/06/15 13:39:47;;;;;;;;;;;40.00;95.50;;;;;;5032838;28;20382;-65
2022/06/15 13:42:22;;;;;;;;;;;40.90;95.10;;;;;;5039499;28;20028;-66
2022/06/15 13:44:49;;;;;;;;;;;41.40;94.70;;;;;;5034025;28;19929;-65
2022/06/15 13:47:17;;;;;;;;;;;41.50;94.10;;;;;;5031413;28;19979;-65
2022/06/15 13:49:44;;;;;;;;;;;42.00;94.90;;;;;;5030189;28;19925;-65
2022/06/15 13:52:23;;;;;;;;;;;40.80;95.40;;;;;;5031507;28;20348;-65
2022/06/15 13:55:06;;;;;;;;;;;40.10;95.30;;;;;;5030236;28;19925;-65
2022/06/15 13:57:41;;;;;;;;;;;38.80;96.20;;;;;;5023306;28;20507;-65
2022/06/15 14:00:13;;;;;;;;;;;38.60;96.00;;;;;;5034285;28;19925;-65
2022/06/15 14:02:46;;;;;;;;;;;38.20;95.60;;;;;;5039074;28;19931;-65
2022/06/15 14:05:24;;;;;;;;;;;37.50;95.10;;;;;;5038243;28;19925;-65
2022/06/15 14:08:00;;;;;;;;;;;36.90;95.80;;;;;;5034726;28;19925;-65
2022/06/15 14:10:34;;;;;;;;;;;36.30;95.90;;;;;;5033984;28;20354;-65
2022/06/15 14:13:12;;;;;;;;;;;35.30;95.50;;;;;;5034711;28;19929;-65
2022/06/15 14:15:50;;;;;;;;;;;35.10;95.50;;;;;;5044294;28;19925;-65
2022/06/15 14:18:25;;;;;;;;;;;35.40;95.50;;;;;;5035148;28;19974;-65
2022/06/15 14:20:52;;;;;;;;;;;35.90;94.70;;;;;;5034079;28;19925;-65
2022/06/15 14:23:28;;;;;;;;;;;36.20;94.50;;;;;;5036567;28;19925;-65
2022/06/15 14:25:55;;;;;;;;;;;36.80;94.70;;;;;;5034150;28;20351;-65
2022/06/15 14:28:23;;;;;;;;;;;37.30;94.50;;;;;;5034604;28;19929;-65
2022/06/15 14:30:58;;;;;;;;;;;37.20;94.10;;;;;;5044601;28;20351;-65
2022/06/15 14:33:27;;;;;;;;;;;37.30;94.20;;;;;;5036584;28;19948;-65
2022/06/15 14:36:08;;;;;;;;;;;37.90;94.40;;;;;;5037857;28;19929;-65
2022/06/15 14:38:37;;;;;;;;;;;39.00;94.30;;;;;;5027100;28;19925;-65
2022/06/15 14:41:12;;;;;;;;;;;39.10;93.90;;;;;;5045361;28;20400;-65
2022/06/15 14:43:39;;;;;;;;;;;38.50;93.60;;;;;;5046027;28;19929;-65
2022/06/15 14:46:06;;;;;;;;;;;38.30;93.20;;;;;;5037144;28;19948;-65
2022/06/15 14:48:34;;;;;;;;;;;38.20;93.70;;;;;;5033760;28;19925;-65
2022/06/15 14:51:05;;;;;;;;;;;38.40;93.40;;;;;;5033212;28;19929;-65
2022/06/15 14:53:32;;;;;;;;;;;38.90;93.80;;;;;;5061576;28;19979;-64